sensor_id;sensor_type;location;lat;lon;timestamp;P1;durP1;ratioP1;P2;durP2;ratioP2
12088;SDS011;6107;49.078;8.578;2022-08-21T00:00:26;3.53;;;2.50;;
12088;SDS011;6107;49.078;8.578;2022-08-21T00:02:55;5.17;;;2.87;;
12088;SDS011;6107;49.078;8.578;2022-08-21T00:05:26;3.90;;;2.33;;
12088;SDS011;6107;49.078;8.578;2022-08-21T00:07:52;5.77;;;2.67;;
12088;SDS011;6107;49.078;8.578;2022-08-21T00:10:19;6.20;;;2.87;;
12088;SDS011;6107;49.078;8.578;2022-08-21T00:12:45;3.37;;;2.80;;
12088;SDS011;6107;49.078;8.578;2022-08-21T00:15:12;5.17;;;2.63;;
12088;SDS011;6107;49.078;8.578;2022-08-21T00:17:41;3.60;;;2.83;;
12088;SDS011;6107;49.078;8.578;2022-08-21T00:20:07;4.53;;;2.50;;
12088;SDS011;6107;49.078;8.578;2022-08-21T00:22:34;3.53;;;2.50;;
12088;SDS011;6107;49.078;8.578;2022-08-21T00:25:01;4.87;;;2.60;;
12088;SDS011;6107;49.078;8.578;2022-08-21T00:27:28;8.50;;;2.80;;
12088;SDS011;6107;49.078;8.578;2022-08-21T00:29:53;4.63;;;2.63;;
12088;SDS011;6107;49.078;8.578;2022-08-21T00:32:21;4.37;;;2.80;;
12088;SDS011;6107;49.078;8.578;2022-08-21T00:34:49;3.27;;;2.70;;
12088;SDS011;6107;49.078;8.578;2022-08-21T00:37:15;4.90;;;3.03;;
12088;SDS011;6107;49.078;8.578;2022-08-21T00:39:41;4.70;;;2.90;;
12088;SDS011;6107;49.078;8.578;2022-08-21T00:42:06;5.87;;;2.60;;
12088;SDS011;6107;49.078;8.578;2022-08-21T00:44:32;4.00;;;2.70;;
12088;SDS011;6107;49.078;8.578;2022-08-21T00:46:58;6.40;;;3.13;;
12088;SDS011;6107;49.078;8.578;2022-08-21T00:49:23;4.43;;;2.53;;
12088;SDS011;6107;49.078;8.578;2022-08-21T00:51:57;7.13;;;3.00;;
12088;SDS011;6107;49.078;8.578;2022-08-21T00:54:24;5.13;;;2.97;;
12088;SDS011;6107;49.078;8.578;2022-08-21T00:56:56;4.87;;;3.00;;
12088;SDS011;6107;49.078;8.578;2022-08-21T00:59:25;3.97;;;2.90;;
12088;SDS011;6107;49.078;8.578;2022-08-21T01:01:51;4.87;;;2.90;;
12088;SDS011;6107;49.078;8.578;2022-08-21T01:04:17;5.63;;;3.07;;
12088;SDS011;6107;49.078;8.578;2022-08-21T01:06:43;4.53;;;3.17;;
12088;SDS011;6107;49.078;8.578;2022-08-21T01:09:09;5.83;;;2.53;;
12088;SDS011;6107;49.078;8.578;2022-08-21T01:11:35;5.67;;;3.13;;
12088;SDS011;6107;49.078;8.578;2022-08-21T01:14:02;10.97;;;3.23;;
12088;SDS011;6107;49.078;8.578;2022-08-21T01:16:27;4.03;;;2.87;;
12088;SDS011;6107;49.078;8.578;2022-08-21T01:18:54;7.47;;;3.30;;
12088;SDS011;6107;49.078;8.578;2022-08-21T01:21:20;4.43;;;2.63;;
12088;SDS011;6107;49.078;8.578;2022-08-21T01:23:49;5.27;;;2.70;;
12088;SDS011;6107;49.078;8.578;2022-08-21T01:26:20;4.10;;;2.90;;
12088;SDS011;6107;49.078;8.578;2022-08-21T01:31:26;5.27;;;2.80;;
12088;SDS011;6107;49.078;8.578;2022-08-21T01:33:53;4.93;;;3.17;;
12088;SDS011;6107;49.078;8.578;2022-08-21T01:36:20;7.07;;;3.07;;
12088;SDS011;6107;49.078;8.578;2022-08-21T01:38:47;7.37;;;3.37;;
12088;SDS011;6107;49.078;8.578;2022-08-21T01:41:13;6.27;;;3.03;;
12088;SDS011;6107;49.078;8.578;2022-08-21T01:43:40;6.07;;;3.20;;
12088;SDS011;6107;49.078;8.578;2022-08-21T01:46:06;5.43;;;3.00;;
12088;SDS011;6107;49.078;8.578;2022-08-21T01:48:31;4.80;;;2.73;;
12088;SDS011;6107;49.078;8.578;2022-08-21T01:50:57;4.27;;;3.00;;
12088;SDS011;6107;49.078;8.578;2022-08-21T01:53:23;5.03;;;2.70;;
12088;SDS011;6107;49.078;8.578;2022-08-21T01:55:49;4.23;;;3.03;;
12088;SDS011;6107;49.078;8.578;2022-08-21T01:58:14;3.03;;;2.50;;
12088;SDS011;6107;49.078;8.578;2022-08-21T02:00:40;4.20;;;3.10;;
12088;SDS011;6107;49.078;8.578;2022-08-21T02:03:05;4.80;;;3.00;;
12088;SDS011;6107;49.078;8.578;2022-08-21T02:05:31;4.37;;;3.00;;
12088;SDS011;6107;49.078;8.578;2022-08-21T02:07:57;4.63;;;2.97;;
12088;SDS011;6107;49.078;8.578;2022-08-21T02:10:24;7.57;;;3.20;;
12088;SDS011;6107;49.078;8.578;2022-08-21T02:12:52;7.00;;;3.13;;
12088;SDS011;6107;49.078;8.578;2022-08-21T02:15:20;4.20;;;2.90;;
12088;SDS011;6107;49.078;8.578;2022-08-21T02:17:50;6.60;;;3.00;;
12088;SDS011;6107;49.078;8.578;2022-08-21T02:20:20;4.87;;;3.30;;
12088;SDS011;6107;49.078;8.578;2022-08-21T02:22:48;3.40;;;3.07;;
12088;SDS011;6107;49.078;8.578;2022-08-21T02:25:14;8.27;;;3.43;;
12088;SDS011;6107;49.078;8.578;2022-08-21T02:27:41;6.10;;;3.20;;
12088;SDS011;6107;49.078;8.578;2022-08-21T02:30:10;6.57;;;3.53;;
12088;SDS011;6107;49.078;8.578;2022-08-21T02:32:38;6.43;;;3.43;;
12088;SDS011;6107;49.078;8.578;2022-08-21T02:35:04;4.13;;;3.10;;
12088;SDS011;6107;49.078;8.578;2022-08-21T02:37:30;4.53;;;3.13;;
12088;SDS011;6107;49.078;8.578;2022-08-21T02:39:56;6.13;;;3.33;;
12088;SDS011;6107;49.078;8.578;2022-08-21T02:42:23;5.23;;;3.30;;
12088;SDS011;6107;49.078;8.578;2022-08-21T02:44:49;5.50;;;3.27;;
12088;SDS011;6107;49.078;8.578;2022-08-21T02:47:14;7.30;;;3.03;;
12088;SDS011;6107;49.078;8.578;2022-08-21T02:49:40;5.83;;;3.07;;
12088;SDS011;6107;49.078;8.578;2022-08-21T02:52:05;5.23;;;3.47;;
12088;SDS011;6107;49.078;8.578;2022-08-21T02:54:31;6.47;;;3.70;;
12088;SDS011;6107;49.078;8.578;2022-08-21T02:56:57;4.83;;;3.00;;
12088;SDS011;6107;49.078;8.578;2022-08-21T02:59:22;7.50;;;3.73;;
12088;SDS011;6107;49.078;8.578;2022-08-21T03:01:48;5.17;;;3.10;;
12088;SDS011;6107;49.078;8.578;2022-08-21T03:04:14;7.13;;;3.17;;
12088;SDS011;6107;49.078;8.578;2022-08-21T03:06:39;5.73;;;3.40;;
12088;SDS011;6107;49.078;8.578;2022-08-21T03:09:05;4.30;;;3.20;;
12088;SDS011;6107;49.078;8.578;2022-08-21T03:11:30;6.63;;;3.30;;
12088;SDS011;6107;49.078;8.578;2022-08-21T03:13:56;5.97;;;3.00;;
12088;SDS011;6107;49.078;8.578;2022-08-21T03:16:21;8.43;;;3.53;;
12088;SDS011;6107;49.078;8.578;2022-08-21T03:18:47;8.43;;;3.20;;
12088;SDS011;6107;49.078;8.578;2022-08-21T03:21:13;5.43;;;3.13;;
12088;SDS011;6107;49.078;8.578;2022-08-21T03:23:38;7.43;;;3.40;;
12088;SDS011;6107;49.078;8.578;2022-08-21T03:26:05;4.63;;;3.13;;
12088;SDS011;6107;49.078;8.578;2022-08-21T03:28:31;6.63;;;3.27;;
12088;SDS011;6107;49.078;8.578;2022-08-21T03:30:57;6.40;;;3.27;;
12088;SDS011;6107;49.078;8.578;2022-08-21T03:33:22;4.20;;;3.70;;
12088;SDS011;6107;49.078;8.578;2022-08-21T03:35:59;6.57;;;3.53;;
12088;SDS011;6107;49.078;8.578;2022-08-21T03:38:28;7.43;;;3.43;;
12088;SDS011;6107;49.078;8.578;2022-08-21T03:40:54;4.90;;;3.37;;
12088;SDS011;6107;49.078;8.578;2022-08-21T03:43:20;6.67;;;3.33;;
12088;SDS011;6107;49.078;8.578;2022-08-21T03:45:46;4.37;;;3.57;;
12088;SDS011;6107;49.078;8.578;2022-08-21T03:48:12;5.60;;;3.60;;
12088;SDS011;6107;49.078;8.578;2022-08-21T03:50:39;4.53;;;3.23;;
12088;SDS011;6107;49.078;8.578;2022-08-21T03:53:06;5.47;;;3.23;;
12088;SDS011;6107;49.078;8.578;2022-08-21T03:55:33;4.20;;;3.47;;
12088;SDS011;6107;49.078;8.578;2022-08-21T03:57:59;5.87;;;3.57;;
12088;SDS011;6107;49.078;8.578;2022-08-21T04:00:24;6.03;;;3.07;;
12088;SDS011;6107;49.078;8.578;2022-08-21T04:02:50;8.17;;;3.30;;
12088;SDS011;6107;49.078;8.578;2022-08-21T04:05:17;6.23;;;3.37;;
12088;SDS011;6107;49.078;8.578;2022-08-21T04:07:53;7.27;;;3.30;;
12088;SDS011;6107;49.078;8.578;2022-08-21T04:10:26;6.53;;;3.10;;
12088;SDS011;6107;49.078;8.578;2022-08-21T04:12:54;5.10;;;3.20;;
12088;SDS011;6107;49.078;8.578;2022-08-21T04:15:20;5.73;;;3.30;;
12088;SDS011;6107;49.078;8.578;2022-08-21T04:17:47;5.37;;;3.30;;
12088;SDS011;6107;49.078;8.578;2022-08-21T04:20:14;6.63;;;3.10;;
12088;SDS011;6107;49.078;8.578;2022-08-21T04:22:40;5.90;;;3.17;;
12088;SDS011;6107;49.078;8.578;2022-08-21T04:25:06;5.20;;;3.30;;
12088;SDS011;6107;49.078;8.578;2022-08-21T04:27:32;7.63;;;3.30;;
12088;SDS011;6107;49.078;8.578;2022-08-21T04:29:58;6.50;;;3.67;;
12088;SDS011;6107;49.078;8.578;2022-08-21T04:32:25;8.33;;;3.50;;
12088;SDS011;6107;49.078;8.578;2022-08-21T04:34:57;7.83;;;3.70;;
12088;SDS011;6107;49.078;8.578;2022-08-21T04:37:27;8.57;;;3.90;;
12088;SDS011;6107;49.078;8.578;2022-08-21T04:39:52;5.10;;;3.33;;
12088;SDS011;6107;49.078;8.578;2022-08-21T04:42:21;7.07;;;3.27;;
12088;SDS011;6107;49.078;8.578;2022-08-21T04:44:47;4.97;;;3.47;;
12088;SDS011;6107;49.078;8.578;2022-08-21T04:47:13;5.67;;;3.60;;
12088;SDS011;6107;49.078;8.578;2022-08-21T04:49:39;5.10;;;3.53;;
12088;SDS011;6107;49.078;8.578;2022-08-21T04:52:05;7.03;;;3.53;;
12088;SDS011;6107;49.078;8.578;2022-08-21T04:54:31;7.53;;;3.80;;
12088;SDS011;6107;49.078;8.578;2022-08-21T04:57:00;4.80;;;3.30;;
12088;SDS011;6107;49.078;8.578;2022-08-21T04:59:35;8.93;;;3.43;;
12088;SDS011;6107;49.078;8.578;2022-08-21T05:02:04;5.03;;;3.60;;
12088;SDS011;6107;49.078;8.578;2022-08-21T05:04:32;6.83;;;3.57;;
12088;SDS011;6107;49.078;8.578;2022-08-21T05:06:59;5.17;;;3.10;;
12088;SDS011;6107;49.078;8.578;2022-08-21T05:09:28;7.03;;;3.33;;
12088;SDS011;6107;49.078;8.578;2022-08-21T05:11:55;6.40;;;3.70;;
12088;SDS011;6107;49.078;8.578;2022-08-21T05:14:21;5.17;;;3.40;;
12088;SDS011;6107;49.078;8.578;2022-08-21T05:16:46;5.67;;;3.30;;
12088;SDS011;6107;49.078;8.578;2022-08-21T05:19:12;6.93;;;3.50;;
12088;SDS011;6107;49.078;8.578;2022-08-21T05:21:41;5.73;;;3.60;;
12088;SDS011;6107;49.078;8.578;2022-08-21T05:24:08;4.23;;;3.37;;
12088;SDS011;6107;49.078;8.578;2022-08-21T05:26:35;5.33;;;3.40;;
12088;SDS011;6107;49.078;8.578;2022-08-21T05:29:01;7.87;;;3.77;;
12088;SDS011;6107;49.078;8.578;2022-08-21T05:31:27;4.83;;;3.23;;
12088;SDS011;6107;49.078;8.578;2022-08-21T05:33:53;5.23;;;3.20;;
12088;SDS011;6107;49.078;8.578;2022-08-21T05:36:19;5.77;;;3.10;;
12088;SDS011;6107;49.078;8.578;2022-08-21T05:38:44;4.53;;;3.10;;
12088;SDS011;6107;49.078;8.578;2022-08-21T05:41:10;6.37;;;3.83;;
12088;SDS011;6107;49.078;8.578;2022-08-21T05:43:36;6.77;;;3.90;;
12088;SDS011;6107;49.078;8.578;2022-08-21T05:46:05;4.97;;;3.10;;
12088;SDS011;6107;49.078;8.578;2022-08-21T05:48:31;6.43;;;3.57;;
12088;SDS011;6107;49.078;8.578;2022-08-21T05:50:58;4.73;;;3.10;;
12088;SDS011;6107;49.078;8.578;2022-08-21T05:53:33;5.03;;;3.33;;
12088;SDS011;6107;49.078;8.578;2022-08-21T05:55:59;8.33;;;3.30;;
12088;SDS011;6107;49.078;8.578;2022-08-21T05:58:28;6.03;;;3.53;;
12088;SDS011;6107;49.078;8.578;2022-08-21T06:00:54;4.50;;;3.43;;
12088;SDS011;6107;49.078;8.578;2022-08-21T06:03:21;5.77;;;3.60;;
12088;SDS011;6107;49.078;8.578;2022-08-21T06:05:48;5.57;;;3.47;;
12088;SDS011;6107;49.078;8.578;2022-08-21T06:08:14;8.70;;;3.30;;
12088;SDS011;6107;49.078;8.578;2022-08-21T06:10:41;5.50;;;3.07;;
12088;SDS011;6107;49.078;8.578;2022-08-21T06:13:07;4.83;;;3.17;;
12088;SDS011;6107;49.078;8.578;2022-08-21T06:15:33;7.37;;;4.03;;
12088;SDS011;6107;49.078;8.578;2022-08-21T06:17:59;6.03;;;3.23;;
12088;SDS011;6107;49.078;8.578;2022-08-21T06:20:24;7.63;;;3.23;;
12088;SDS011;6107;49.078;8.578;2022-08-21T06:22:50;9.47;;;3.63;;
12088;SDS011;6107;49.078;8.578;2022-08-21T06:25:16;4.50;;;2.57;;
12088;SDS011;6107;49.078;8.578;2022-08-21T06:27:42;4.93;;;3.17;;
12088;SDS011;6107;49.078;8.578;2022-08-21T06:30:07;5.57;;;3.23;;
12088;SDS011;6107;49.078;8.578;2022-08-21T06:32:34;5.33;;;3.40;;
12088;SDS011;6107;49.078;8.578;2022-08-21T06:35:00;5.03;;;3.07;;
12088;SDS011;6107;49.078;8.578;2022-08-21T06:37:26;4.47;;;3.40;;
12088;SDS011;6107;49.078;8.578;2022-08-21T06:39:52;5.80;;;3.20;;
12088;SDS011;6107;49.078;8.578;2022-08-21T06:42:17;4.87;;;3.20;;
12088;SDS011;6107;49.078;8.578;2022-08-21T06:44:43;8.32;;;3.38;;
12088;SDS011;6107;49.078;8.578;2022-08-21T06:47:09;5.37;;;2.70;;
12088;SDS011;6107;49.078;8.578;2022-08-21T06:49:35;5.00;;;2.77;;
12088;SDS011;6107;49.078;8.578;2022-08-21T06:52:01;11.20;;;3.00;;
12088;SDS011;6107;49.078;8.578;2022-08-21T06:54:27;7.28;;;3.13;;
12088;SDS011;6107;49.078;8.578;2022-08-21T06:56:53;8.48;;;3.10;;
12088;SDS011;6107;49.078;8.578;2022-08-21T06:59:18;7.15;;;2.88;;
12088;SDS011;6107;49.078;8.578;2022-08-21T07:01:44;10.05;;;2.97;;
12088;SDS011;6107;49.078;8.578;2022-08-21T07:04:10;3.80;;;2.90;;
12088;SDS011;6107;49.078;8.578;2022-08-21T07:06:36;6.75;;;2.80;;
12088;SDS011;6107;49.078;8.578;2022-08-21T07:09:02;8.85;;;3.13;;
12088;SDS011;6107;49.078;8.578;2022-08-21T07:11:28;7.32;;;2.90;;
12088;SDS011;6107;49.078;8.578;2022-08-21T07:13:54;6.43;;;3.17;;
12088;SDS011;6107;49.078;8.578;2022-08-21T07:16:21;6.60;;;3.00;;
12088;SDS011;6107;49.078;8.578;2022-08-21T07:18:47;7.90;;;3.17;;
12088;SDS011;6107;49.078;8.578;2022-08-21T07:21:13;6.97;;;3.25;;
12088;SDS011;6107;49.078;8.578;2022-08-21T07:23:40;6.72;;;2.90;;
12088;SDS011;6107;49.078;8.578;2022-08-21T07:26:12;4.75;;;2.67;;
12088;SDS011;6107;49.078;8.578;2022-08-21T07:28:38;5.35;;;3.00;;
12088;SDS011;6107;49.078;8.578;2022-08-21T07:31:04;7.20;;;3.25;;
12088;SDS011;6107;49.078;8.578;2022-08-21T07:33:31;7.03;;;3.20;;
12088;SDS011;6107;49.078;8.578;2022-08-21T07:35:57;5.47;;;3.50;;
12088;SDS011;6107;49.078;8.578;2022-08-21T07:38:23;5.75;;;2.80;;
12088;SDS011;6107;49.078;8.578;2022-08-21T07:40:50;7.00;;;3.05;;
12088;SDS011;6107;49.078;8.578;2022-08-21T07:43:17;5.80;;;2.72;;
12088;SDS011;6107;49.078;8.578;2022-08-21T07:45:43;7.38;;;2.88;;
12088;SDS011;6107;49.078;8.578;2022-08-21T07:48:09;6.15;;;2.97;;
12088;SDS011;6107;49.078;8.578;2022-08-21T07:50:35;5.22;;;3.10;;
12088;SDS011;6107;49.078;8.578;2022-08-21T07:53:01;7.45;;;3.22;;
12088;SDS011;6107;49.078;8.578;2022-08-21T07:55:27;3.95;;;2.85;;
12088;SDS011;6107;49.078;8.578;2022-08-21T07:57:53;7.63;;;3.05;;
12088;SDS011;6107;49.078;8.578;2022-08-21T08:00:20;6.20;;;2.95;;
12088;SDS011;6107;49.078;8.578;2022-08-21T08:02:48;7.60;;;3.47;;
12088;SDS011;6107;49.078;8.578;2022-08-21T08:05:16;6.63;;;3.10;;
12088;SDS011;6107;49.078;8.578;2022-08-21T08:07:43;9.02;;;3.33;;
12088;SDS011;6107;49.078;8.578;2022-08-21T08:10:09;6.90;;;3.40;;
12088;SDS011;6107;49.078;8.578;2022-08-21T08:12:36;6.55;;;3.45;;
12088;SDS011;6107;49.078;8.578;2022-08-21T08:15:03;6.15;;;3.30;;
12088;SDS011;6107;49.078;8.578;2022-08-21T08:17:31;9.63;;;3.53;;
12088;SDS011;6107;49.078;8.578;2022-08-21T08:19:57;6.15;;;3.50;;
12088;SDS011;6107;49.078;8.578;2022-08-21T08:22:23;5.82;;;3.00;;
12088;SDS011;6107;49.078;8.578;2022-08-21T08:24:49;11.43;;;3.50;;
12088;SDS011;6107;49.078;8.578;2022-08-21T08:27:16;8.95;;;3.28;;
12088;SDS011;6107;49.078;8.578;2022-08-21T08:29:43;7.65;;;3.38;;
12088;SDS011;6107;49.078;8.578;2022-08-21T08:32:09;6.18;;;3.40;;
12088;SDS011;6107;49.078;8.578;2022-08-21T08:34:35;6.63;;;3.55;;
12088;SDS011;6107;49.078;8.578;2022-08-21T08:37:02;7.53;;;3.10;;
12088;SDS011;6107;49.078;8.578;2022-08-21T08:39:28;7.53;;;3.50;;
12088;SDS011;6107;49.078;8.578;2022-08-21T08:42:08;5.80;;;3.20;;
12088;SDS011;6107;49.078;8.578;2022-08-21T08:44:39;8.27;;;3.60;;
12088;SDS011;6107;49.078;8.578;2022-08-21T08:47:06;6.57;;;3.42;;
12088;SDS011;6107;49.078;8.578;2022-08-21T08:49:36;7.22;;;3.60;;
12088;SDS011;6107;49.078;8.578;2022-08-21T08:52:15;10.10;;;3.72;;
12088;SDS011;6107;49.078;8.578;2022-08-21T08:55:13;8.30;;;3.72;;
12088;SDS011;6107;49.078;8.578;2022-08-21T08:57:44;10.82;;;4.15;;
12088;SDS011;6107;49.078;8.578;2022-08-21T09:00:13;11.55;;;3.67;;
12088;SDS011;6107;49.078;8.578;2022-08-21T09:02:42;4.43;;;3.28;;
12088;SDS011;6107;49.078;8.578;2022-08-21T09:05:12;7.35;;;3.88;;
12088;SDS011;6107;49.078;8.578;2022-08-21T09:10:45;8.93;;;3.78;;
12088;SDS011;6107;49.078;8.578;2022-08-21T09:21:37;8.88;;;3.80;;
12088;SDS011;6107;49.078;8.578;2022-08-21T09:24:38;7.18;;;3.60;;
12088;SDS011;6107;49.078;8.578;2022-08-21T09:27:13;8.75;;;4.03;;
12088;SDS011;6107;49.078;8.578;2022-08-21T09:29:41;5.22;;;3.33;;
12088;SDS011;6107;49.078;8.578;2022-08-21T09:32:11;6.50;;;3.45;;
12088;SDS011;6107;49.078;8.578;2022-08-21T09:34:59;5.18;;;3.65;;
12088;SDS011;6107;49.078;8.578;2022-08-21T09:37:26;7.53;;;3.22;;
12088;SDS011;6107;49.078;8.578;2022-08-21T09:39:54;5.57;;;3.55;;
12088;SDS011;6107;49.078;8.578;2022-08-21T09:42:31;8.13;;;3.78;;
12088;SDS011;6107;49.078;8.578;2022-08-21T09:45:05;9.15;;;3.47;;
12088;SDS011;6107;49.078;8.578;2022-08-21T09:47:40;8.73;;;3.85;;
12088;SDS011;6107;49.078;8.578;2022-08-21T09:50:07;5.03;;;3.90;;
12088;SDS011;6107;49.078;8.578;2022-08-21T09:52:50;9.73;;;3.53;;
12088;SDS011;6107;49.078;8.578;2022-08-21T09:55:20;6.60;;;3.20;;
12088;SDS011;6107;49.078;8.578;2022-08-21T09:58:32;7.20;;;3.55;;
12088;SDS011;6107;49.078;8.578;2022-08-21T10:01:00;10.32;;;4.10;;
12088;SDS011;6107;49.078;8.578;2022-08-21T10:03:27;8.10;;;3.97;;
12088;SDS011;6107;49.078;8.578;2022-08-21T10:05:55;7.03;;;3.40;;
12088;SDS011;6107;49.078;8.578;2022-08-21T10:08:24;7.72;;;3.60;;
12088;SDS011;6107;49.078;8.578;2022-08-21T10:10:56;7.78;;;3.88;;
12088;SDS011;6107;49.078;8.578;2022-08-21T10:27:46;9.57;;;3.90;;
12088;SDS011;6107;49.078;8.578;2022-08-21T10:30:20;7.18;;;3.63;;
12088;SDS011;6107;49.078;8.578;2022-08-21T10:33:04;5.70;;;3.20;;
12088;SDS011;6107;49.078;8.578;2022-08-21T10:36:29;6.45;;;3.63;;
12088;SDS011;6107;49.078;8.578;2022-08-21T10:38:36;6.80;;;3.33;;
12088;SDS011;6107;49.078;8.578;2022-08-21T10:41:28;6.55;;;3.20;;
12088;SDS011;6107;49.078;8.578;2022-08-21T10:44:25;8.50;;;3.65;;
12088;SDS011;6107;49.078;8.578;2022-08-21T10:47:08;6.80;;;3.33;;
12088;SDS011;6107;49.078;8.578;2022-08-21T10:50:00;7.43;;;3.20;;
12088;SDS011;6107;49.078;8.578;2022-08-21T10:53:05;5.82;;;3.20;;
12088;SDS011;6107;49.078;8.578;2022-08-21T10:55:44;8.43;;;3.53;;
12088;SDS011;6107;49.078;8.578;2022-08-21T10:58:36;5.18;;;3.05;;
12088;SDS011;6107;49.078;8.578;2022-08-21T11:03:45;5.53;;;3.45;;
12088;SDS011;6107;49.078;8.578;2022-08-21T11:06:24;7.05;;;3.30;;
12088;SDS011;6107;49.078;8.578;2022-08-21T11:08:57;7.20;;;3.20;;
12088;SDS011;6107;49.078;8.578;2022-08-21T11:11:35;5.55;;;2.88;;
12088;SDS011;6107;49.078;8.578;2022-08-21T11:19:22;6.97;;;3.58;;
12088;SDS011;6107;49.078;8.578;2022-08-21T11:27:13;5.80;;;3.13;;
12088;SDS011;6107;49.078;8.578;2022-08-21T11:29:45;5.07;;;3.15;;
12088;SDS011;6107;49.078;8.578;2022-08-21T11:32:24;6.88;;;3.30;;
12088;SDS011;6107;49.078;8.578;2022-08-21T11:35:03;9.15;;;3.45;;
12088;SDS011;6107;49.078;8.578;2022-08-21T11:37:40;5.88;;;2.97;;
12088;SDS011;6107;49.078;8.578;2022-08-21T11:40:50;5.95;;;2.92;;
12088;SDS011;6107;49.078;8.578;2022-08-21T11:46:18;7.38;;;3.53;;
12088;SDS011;6107;49.078;8.578;2022-08-21T11:51:59;8.18;;;3.50;;
12088;SDS011;6107;49.078;8.578;2022-08-21T11:54:38;9.70;;;3.58;;
12088;SDS011;6107;49.078;8.578;2022-08-21T11:57:18;7.43;;;3.63;;
12088;SDS011;6107;49.078;8.578;2022-08-21T12:02:38;7.13;;;3.58;;
12088;SDS011;6107;49.078;8.578;2022-08-21T12:05:11;8.18;;;3.67;;
12088;SDS011;6107;49.078;8.578;2022-08-21T12:07:47;5.18;;;2.85;;
12088;SDS011;6107;49.078;8.578;2022-08-21T12:10:14;8.00;;;3.70;;
12088;SDS011;6107;49.078;8.578;2022-08-21T12:12:46;6.80;;;2.97;;
12088;SDS011;6107;49.078;8.578;2022-08-21T12:17:50;5.80;;;3.28;;
12088;SDS011;6107;49.078;8.578;2022-08-21T12:23:13;5.97;;;3.20;;
12088;SDS011;6107;49.078;8.578;2022-08-21T12:28:20;5.90;;;3.05;;
12088;SDS011;6107;49.078;8.578;2022-08-21T12:30:48;7.60;;;3.03;;
12088;SDS011;6107;49.078;8.578;2022-08-21T12:36:01;6.38;;;3.08;;
12088;SDS011;6107;49.078;8.578;2022-08-21T12:38:43;7.93;;;3.38;;
12088;SDS011;6107;49.078;8.578;2022-08-21T12:41:17;6.82;;;3.17;;
12088;SDS011;6107;49.078;8.578;2022-08-21T12:43:47;5.13;;;3.05;;
12088;SDS011;6107;49.078;8.578;2022-08-21T12:46:24;8.20;;;3.55;;
12088;SDS011;6107;49.078;8.578;2022-08-21T12:48:56;5.68;;;3.35;;
12088;SDS011;6107;49.078;8.578;2022-08-21T12:51:29;5.18;;;3.00;;
12088;SDS011;6107;49.078;8.578;2022-08-21T12:54:08;7.07;;;3.20;;
12088;SDS011;6107;49.078;8.578;2022-08-21T12:56:34;9.00;;;3.30;;
12088;SDS011;6107;49.078;8.578;2022-08-21T12:59:03;6.50;;;3.33;;
12088;SDS011;6107;49.078;8.578;2022-08-21T13:01:46;8.40;;;3.17;;
12088;SDS011;6107;49.078;8.578;2022-08-21T13:04:17;4.95;;;2.90;;
12088;SDS011;6107;49.078;8.578;2022-08-21T13:06:47;4.88;;;3.22;;
12088;SDS011;6107;49.078;8.578;2022-08-21T13:09:16;7.07;;;2.97;;
12088;SDS011;6107;49.078;8.578;2022-08-21T13:11:47;4.97;;;3.40;;
12088;SDS011;6107;49.078;8.578;2022-08-21T13:14:23;8.38;;;3.22;;
12088;SDS011;6107;49.078;8.578;2022-08-21T13:16:54;5.22;;;3.00;;
12088;SDS011;6107;49.078;8.578;2022-08-21T13:19:21;5.18;;;3.10;;
12088;SDS011;6107;49.078;8.578;2022-08-21T13:21:46;7.65;;;3.33;;
12088;SDS011;6107;49.078;8.578;2022-08-21T13:26:45;6.32;;;3.17;;
12088;SDS011;6107;49.078;8.578;2022-08-21T13:29:13;5.05;;;3.03;;
12088;SDS011;6107;49.078;8.578;2022-08-21T13:31:41;4.97;;;2.88;;
12088;SDS011;6107;49.078;8.578;2022-08-21T13:34:12;5.22;;;3.17;;
12088;SDS011;6107;49.078;8.578;2022-08-21T13:36:40;6.55;;;3.20;;
12088;SDS011;6107;49.078;8.578;2022-08-21T13:39:09;4.43;;;2.88;;
12088;SDS011;6107;49.078;8.578;2022-08-21T13:41:37;5.28;;;3.00;;
12088;SDS011;6107;49.078;8.578;2022-08-21T13:46:56;5.93;;;2.90;;
12088;SDS011;6107;49.078;8.578;2022-08-21T13:49:32;6.93;;;2.75;;
12088;SDS011;6107;49.078;8.578;2022-08-21T13:52:00;3.45;;;2.63;;
12088;SDS011;6107;49.078;8.578;2022-08-21T13:54:34;4.97;;;2.65;;
12088;SDS011;6107;49.078;8.578;2022-08-21T13:57:02;8.57;;;2.80;;
12088;SDS011;6107;49.078;8.578;2022-08-21T13:59:29;5.10;;;2.60;;
12088;SDS011;6107;49.078;8.578;2022-08-21T14:04:44;4.07;;;2.67;;
12088;SDS011;6107;49.078;8.578;2022-08-21T14:07:33;3.90;;;2.78;;
12088;SDS011;6107;49.078;8.578;2022-08-21T14:10:01;4.97;;;2.53;;
12088;SDS011;6107;49.078;8.578;2022-08-21T14:12:38;4.75;;;3.00;;
12088;SDS011;6107;49.078;8.578;2022-08-21T14:15:07;4.88;;;2.60;;
12088;SDS011;6107;49.078;8.578;2022-08-21T14:17:38;3.85;;;2.83;;
12088;SDS011;6107;49.078;8.578;2022-08-21T14:20:08;5.35;;;2.85;;
12088;SDS011;6107;49.078;8.578;2022-08-21T14:22:46;6.00;;;3.15;;
12088;SDS011;6107;49.078;8.578;2022-08-21T14:25:14;5.90;;;3.00;;
12088;SDS011;6107;49.078;8.578;2022-08-21T14:27:44;4.65;;;2.67;;
12088;SDS011;6107;49.078;8.578;2022-08-21T14:30:34;7.25;;;2.78;;
12088;SDS011;6107;49.078;8.578;2022-08-21T14:33:02;5.50;;;2.83;;
12088;SDS011;6107;49.078;8.578;2022-08-21T14:35:29;6.18;;;2.63;;
12088;SDS011;6107;49.078;8.578;2022-08-21T14:37:55;4.15;;;2.70;;
12088;SDS011;6107;49.078;8.578;2022-08-21T14:40:22;5.65;;;2.80;;
12088;SDS011;6107;49.078;8.578;2022-08-21T14:42:49;4.30;;;2.60;;
12088;SDS011;6107;49.078;8.578;2022-08-21T14:47:59;3.65;;;2.50;;
12088;SDS011;6107;49.078;8.578;2022-08-21T14:50:25;4.53;;;2.50;;
12088;SDS011;6107;49.078;8.578;2022-08-21T14:52:51;3.85;;;2.42;;
12088;SDS011;6107;49.078;8.578;2022-08-21T14:55:17;3.47;;;2.40;;
12088;SDS011;6107;49.078;8.578;2022-08-21T14:57:44;4.78;;;2.67;;
12088;SDS011;6107;49.078;8.578;2022-08-21T15:00:16;3.20;;;2.50;;
12088;SDS011;6107;49.078;8.578;2022-08-21T15:02:45;3.35;;;2.53;;
12088;SDS011;6107;49.078;8.578;2022-08-21T15:05:10;6.32;;;2.80;;
12088;SDS011;6107;49.078;8.578;2022-08-21T15:07:36;5.65;;;2.88;;
12088;SDS011;6107;49.078;8.578;2022-08-21T15:10:03;4.18;;;2.80;;
12088;SDS011;6107;49.078;8.578;2022-08-21T15:12:29;6.10;;;3.10;;
12088;SDS011;6107;49.078;8.578;2022-08-21T15:14:55;5.20;;;2.78;;
12088;SDS011;6107;49.078;8.578;2022-08-21T15:17:21;6.00;;;2.70;;
12088;SDS011;6107;49.078;8.578;2022-08-21T15:19:46;5.13;;;2.90;;
12088;SDS011;6107;49.078;8.578;2022-08-21T15:22:12;5.25;;;2.70;;
12088;SDS011;6107;49.078;8.578;2022-08-21T15:24:38;3.65;;;2.63;;
12088;SDS011;6107;49.078;8.578;2022-08-21T15:27:04;5.03;;;2.90;;
12088;SDS011;6107;49.078;8.578;2022-08-21T15:29:32;4.57;;;2.88;;
12088;SDS011;6107;49.078;8.578;2022-08-21T15:31:59;5.28;;;2.90;;
12088;SDS011;6107;49.078;8.578;2022-08-21T15:34:28;4.07;;;2.80;;
12088;SDS011;6107;49.078;8.578;2022-08-21T15:36:55;4.93;;;2.55;;
12088;SDS011;6107;49.078;8.578;2022-08-21T15:39:22;3.85;;;2.67;;
12088;SDS011;6107;49.078;8.578;2022-08-21T15:41:48;3.95;;;2.58;;
12088;SDS011;6107;49.078;8.578;2022-08-21T15:44:14;3.90;;;2.70;;
12088;SDS011;6107;49.078;8.578;2022-08-21T15:46:40;6.72;;;2.85;;
12088;SDS011;6107;49.078;8.578;2022-08-21T15:49:07;4.50;;;2.53;;
12088;SDS011;6107;49.078;8.578;2022-08-21T15:51:33;4.03;;;2.58;;
12088;SDS011;6107;49.078;8.578;2022-08-21T15:53:58;4.28;;;2.70;;
12088;SDS011;6107;49.078;8.578;2022-08-21T15:56:28;4.35;;;2.47;;
12088;SDS011;6107;49.078;8.578;2022-08-21T15:59:01;4.30;;;2.60;;
12088;SDS011;6107;49.078;8.578;2022-08-21T16:01:29;3.67;;;2.40;;
12088;SDS011;6107;49.078;8.578;2022-08-21T16:03:54;5.38;;;2.38;;
12088;SDS011;6107;49.078;8.578;2022-08-21T16:06:20;4.05;;;2.85;;
12088;SDS011;6107;49.078;8.578;2022-08-21T16:08:46;3.70;;;2.42;;
12088;SDS011;6107;49.078;8.578;2022-08-21T16:11:11;5.72;;;2.60;;
12088;SDS011;6107;49.078;8.578;2022-08-21T16:13:40;2.83;;;2.50;;
12088;SDS011;6107;49.078;8.578;2022-08-21T16:16:11;4.28;;;2.63;;
12088;SDS011;6107;49.078;8.578;2022-08-21T16:18:46;4.53;;;2.50;;
12088;SDS011;6107;49.078;8.578;2022-08-21T16:21:12;3.80;;;2.50;;
12088;SDS011;6107;49.078;8.578;2022-08-21T16:23:38;4.60;;;2.70;;